createdAt,value
2023-03-05T00:00:47.062Z,7.3
2023-03-05T00:05:53.263Z,7.2
2023-03-05T00:10:59.464Z,7.2
2023-03-05T00:16:05.728Z,7.2
2023-03-05T00:21:11.875Z,7.2
2023-03-05T00:26:18.081Z,7.2
2023-03-05T00:31:24.350Z,7.2
2023-03-05T00:36:30.510Z,7.2
2023-03-05T00:41:36.709Z,7.2
2023-03-05T00:46:42.950Z,7.1
2023-03-05T00:51:49.123Z,7.1
2023-03-05T00:56:55.354Z,7.2
2023-03-05T01:02:01.620Z,7.1
2023-03-05T01:07:08.073Z,7.1
2023-03-05T01:12:13.937Z,7.1
2023-03-05T01:17:20.152Z,7.1
2023-03-05T01:22:26.352Z,7.1
2023-03-05T01:27:32.551Z,7.1
2023-03-05T01:32:38.872Z,7.1
2023-03-05T01:37:44.976Z,7.0
2023-03-05T01:42:50.205Z,7.0
2023-03-05T01:47:56.411Z,7.0
2023-03-05T01:53:02.616Z,6.9
2023-03-05T01:58:07.851Z,6.9
2023-03-05T02:03:14.059Z,6.9
2023-03-05T02:08:20.270Z,6.9
2023-03-05T02:13:26.482Z,6.9
2023-03-05T02:18:32.690Z,6.9
2023-03-05T02:23:38.908Z,6.9
2023-03-05T02:28:45.104Z,6.9
2023-03-05T02:33:51.336Z,6.8
2023-03-05T02:38:57.522Z,6.8
2023-03-05T02:44:03.725Z,6.8
2023-03-05T02:49:09.948Z,6.8
2023-03-05T02:54:16.140Z,6.8
2023-03-05T02:59:22.350Z,6.8
2023-03-05T03:04:28.554Z,6.8
2023-03-05T03:09:34.764Z,6.7
2023-03-05T03:14:40.968Z,6.7
2023-03-05T03:19:47.197Z,6.7
2023-03-05T03:24:53.400Z,6.7
2023-03-05T03:29:59.592Z,6.7
2023-03-05T03:35:05.826Z,6.7
2023-03-05T03:40:12.035Z,6.7
2023-03-05T03:45:17.246Z,6.7
2023-03-05T03:50:23.449Z,6.7
2023-03-05T03:55:28.692Z,6.6
2023-03-05T04:00:34.904Z,6.6
2023-03-05T04:05:41.136Z,6.6
2023-03-05T04:10:47.314Z,6.6
2023-03-05T04:15:53.630Z,6.6
2023-03-05T04:20:59.888Z,6.6
2023-03-05T04:26:05.939Z,6.5
2023-03-05T04:31:12.181Z,6.5
2023-03-05T04:36:18.354Z,6.5
2023-03-05T04:41:24.561Z,6.5
2023-03-05T04:46:30.860Z,6.5
2023-03-05T04:51:36.963Z,6.5
2023-03-05T04:56:43.189Z,6.5
2023-03-05T05:01:49.437Z,6.5
2023-03-05T05:06:55.593Z,6.5
2023-03-05T05:12:01.804Z,6.5
2023-03-05T05:17:08.010Z,6.5
2023-03-05T05:22:14.219Z,6.5
2023-03-05T05:27:20.425Z,6.5
2023-03-05T05:32:26.633Z,6.5
2023-03-05T05:37:32.967Z,6.5
2023-03-05T05:42:38.076Z,6.5
2023-03-05T05:47:43.335Z,6.5
2023-03-05T05:52:49.519Z,6.5
2023-03-05T05:57:54.764Z,6.5
2023-03-05T06:03:01.024Z,6.5
2023-03-05T06:08:07.160Z,6.5
2023-03-05T06:13:13.454Z,6.5
2023-03-05T06:18:19.575Z,6.5
2023-03-05T06:23:25.782Z,6.5
2023-03-05T06:28:31.992Z,6.5
2023-03-05T06:33:38.202Z,6.4
2023-03-05T06:38:44.422Z,6.4
2023-03-05T06:43:50.662Z,6.4
2023-03-05T06:48:55.848Z,6.4
2023-03-05T06:54:02.049Z,6.4
2023-03-05T06:59:08.254Z,6.5
2023-03-05T07:04:14.474Z,6.5
2023-03-05T07:09:20.666Z,6.5
2023-03-05T07:14:26.879Z,6.5
2023-03-05T07:19:33.084Z,6.5
2023-03-05T07:24:39.304Z,6.5
2023-03-05T07:29:45.494Z,6.6
2023-03-05T07:34:51.717Z,6.6
2023-03-05T07:39:57.919Z,6.6
2023-03-05T07:45:03.151Z,6.7
2023-03-05T07:50:09.366Z,6.7
2023-03-05T07:55:14.596Z,6.8
2023-03-05T08:00:20.802Z,6.8
2023-03-05T08:05:27.011Z,6.9
2023-03-05T08:10:33.219Z,7.0
2023-03-05T08:15:39.572Z,7.0
2023-03-05T08:20:45.624Z,7.1
2023-03-05T08:25:51.838Z,7.2
2023-03-05T08:30:58.120Z,7.2
2023-03-05T08:36:04.257Z,7.3
2023-03-05T08:41:10.497Z,7.3
2023-03-05T08:46:16.756Z,7.4
2023-03-05T08:51:22.873Z,7.4
2023-03-05T08:56:29.093Z,7.4
2023-03-05T09:01:35.384Z,7.5
2023-03-05T09:06:41.506Z,7.5
2023-03-05T09:11:47.714Z,7.7
2023-03-05T09:16:53.917Z,7.8
2023-03-05T09:22:00.160Z,7.9
2023-03-05T09:27:06.332Z,8.0
2023-03-05T09:32:12.586Z,8.1
2023-03-05T09:37:18.749Z,8.2
2023-03-05T09:42:23.982Z,8.3
2023-03-05T09:47:30.183Z,8.4
2023-03-05T09:52:35.431Z,8.4
2023-03-05T09:57:41.630Z,8.4
2023-03-05T10:02:47.874Z,8.4
2023-03-05T10:07:54.068Z,8.4
2023-03-05T10:13:00.252Z,8.5
2023-03-05T10:18:06.461Z,8.6
2023-03-05T10:23:12.725Z,8.6
2023-03-05T10:28:18.884Z,8.6
2023-03-05T10:33:25.099Z,8.6
2023-03-05T10:38:31.306Z,8.5
2023-03-05T10:43:37.504Z,8.4
2023-03-05T10:48:43.710Z,8.2
2023-03-05T10:53:49.917Z,8.0
2023-03-05T10:58:56.159Z,7.9
2023-03-05T11:04:02.349Z,7.9
2023-03-05T11:09:08.542Z,7.9
2023-03-05T11:14:14.761Z,8.1
2023-03-05T11:19:20.968Z,8.2
2023-03-05T11:24:27.177Z,8.3
2023-03-05T11:29:33.363Z,8.4
2023-03-05T11:34:39.578Z,8.5
2023-03-05T11:39:44.807Z,8.6
2023-03-05T11:44:51.056Z,8.7
2023-03-05T11:49:56.257Z,8.8
2023-03-05T11:55:02.464Z,8.9
2023-03-05T12:00:08.705Z,9.0
2023-03-05T12:05:14.891Z,9.1
2023-03-05T12:10:21.100Z,9.2
2023-03-05T12:15:27.299Z,9.3
2023-03-05T12:20:33.572Z,9.4
2023-03-05T12:25:39.719Z,9.5
2023-03-05T12:30:46.253Z,9.5
2023-03-05T12:35:52.168Z,9.6
2023-03-05T12:40:58.343Z,9.7
2023-03-05T12:46:04.547Z,9.7
2023-03-05T12:51:10.756Z,9.8
2023-03-05T12:56:16.972Z,9.9
2023-03-05T13:01:23.175Z,10.0
2023-03-05T13:06:29.369Z,10.1
2023-03-05T13:11:35.580Z,10.2
2023-03-05T13:16:41.936Z,10.2
2023-03-05T13:21:48.198Z,10.2
2023-03-05T13:26:54.203Z,10.3
2023-03-05T13:32:00.528Z,10.3
2023-03-05T13:37:05.645Z,10.3
2023-03-05T13:42:11.857Z,10.3
2023-03-05T13:47:18.139Z,10.3
2023-03-05T13:52:23.294Z,10.3
2023-03-05T13:57:29.552Z,10.4
2023-03-05T14:02:35.713Z,10.4
2023-03-05T14:07:42.035Z,10.4
2023-03-05T14:12:48.128Z,10.4
2023-03-05T14:17:54.338Z,10.4
2023-03-05T14:23:00.542Z,10.4
2023-03-05T14:28:06.762Z,10.4
2023-03-05T14:33:12.961Z,10.4
2023-03-05T14:38:19.165Z,10.5
2023-03-05T14:43:25.372Z,10.5
2023-03-05T14:48:31.584Z,10.4
2023-03-05T14:53:37.794Z,10.4
2023-03-05T14:58:44.013Z,10.3
2023-03-05T15:03:50.224Z,10.3
2023-03-05T15:08:56.419Z,10.3
2023-03-05T15:14:02.629Z,10.2
2023-03-05T15:19:08.828Z,10.2
2023-03-05T15:24:15.055Z,10.2
2023-03-05T15:29:21.249Z,10.1
2023-03-05T15:34:27.451Z,10.1
2023-03-05T15:39:32.682Z,10.0
2023-03-05T15:44:38.942Z,10.0
2023-03-05T15:49:45.101Z,9.9
2023-03-05T15:54:50.334Z,9.9
2023-03-05T15:59:56.571Z,9.8
2023-03-05T16:05:02.751Z,9.7
2023-03-05T16:10:09.084Z,9.7
2023-03-05T16:15:15.173Z,9.6
2023-03-05T16:20:21.402Z,9.6
2023-03-05T16:25:27.584Z,9.5
2023-03-05T16:30:33.806Z,9.5
2023-03-05T16:35:40.057Z,9.4
2023-03-05T16:41:06.810Z,9.3
2023-03-05T16:45:52.423Z,9.2
2023-03-05T16:50:58.627Z,9.2
2023-03-05T16:56:04.840Z,9.1
2023-03-05T17:01:11.099Z,9.0
2023-03-05T17:06:17.260Z,9.0
2023-03-05T17:11:23.451Z,8.9
2023-03-05T17:16:29.711Z,8.9
2023-03-05T17:21:35.873Z,8.8
2023-03-05T17:26:42.159Z,8.7
2023-03-05T17:31:48.377Z,8.7
2023-03-05T17:36:54.514Z,8.6
2023-03-05T17:41:59.732Z,8.6
2023-03-05T17:47:05.932Z,8.5
2023-03-05T17:52:11.171Z,8.5
2023-03-05T17:57:17.388Z,8.4
2023-03-05T18:02:23.604Z,8.4
2023-03-05T18:07:29.792Z,8.3
2023-03-05T18:12:36.026Z,8.3
2023-03-05T18:17:42.243Z,8.2
2023-03-05T18:22:48.437Z,8.2
2023-03-05T18:27:54.631Z,8.2
2023-03-05T18:33:00.829Z,8.2
2023-03-05T18:38:07.042Z,8.1
2023-03-05T18:43:13.244Z,8.1
2023-03-05T18:48:19.452Z,8.1
2023-03-05T18:53:25.668Z,8.1
2023-03-05T18:58:31.865Z,8.0
2023-03-05T19:03:38.087Z,8.0
2023-03-05T19:08:44.287Z,7.9
2023-03-05T19:13:50.506Z,7.9
2023-03-05T19:18:56.701Z,7.9
2023-03-05T19:24:02.942Z,7.9
2023-03-05T19:29:09.238Z,7.8
2023-03-05T19:34:15.320Z,7.8
2023-03-05T19:39:20.565Z,7.7
2023-03-05T19:44:26.773Z,7.6
2023-03-05T19:49:32.010Z,7.5
2023-03-05T19:54:38.208Z,7.5
2023-03-05T19:59:44.443Z,7.4
2023-03-05T20:04:50.624Z,7.4
2023-03-05T20:09:56.855Z,7.2
2023-03-05T20:15:03.043Z,7.1
2023-03-05T20:20:09.245Z,7.0
2023-03-05T20:25:15.484Z,6.9
2023-03-05T20:30:21.662Z,6.9
2023-03-05T20:35:27.899Z,6.8
2023-03-05T20:40:34.079Z,6.8
2023-03-05T20:45:40.284Z,6.7
2023-03-05T20:50:46.493Z,6.7
2023-03-05T20:55:52.702Z,6.7
2023-03-05T21:00:59.048Z,6.7
2023-03-05T21:06:05.120Z,6.7
2023-03-05T21:11:11.339Z,6.7
2023-03-05T21:16:17.584Z,6.7
2023-03-05T21:21:23.743Z,6.7
2023-03-05T21:26:29.946Z,6.7
2023-03-05T21:31:36.207Z,6.6
2023-03-05T21:36:41.402Z,6.6
2023-03-05T21:41:47.591Z,6.6
2023-03-05T21:46:53.834Z,6.6
2023-03-05T21:51:59.049Z,6.6
2023-03-05T21:57:05.244Z,6.5
2023-03-05T22:02:11.475Z,6.5
2023-03-05T22:07:17.682Z,6.5
2023-03-05T22:12:23.859Z,6.5
2023-03-05T22:17:30.078Z,6.5
2023-03-05T22:22:36.277Z,6.5
2023-03-05T22:27:42.483Z,6.5
2023-03-05T22:32:48.690Z,6.4
2023-03-05T22:37:54.905Z,6.5
2023-03-05T22:43:01.112Z,6.5
2023-03-05T22:48:07.337Z,6.4
2023-03-05T22:53:13.540Z,6.4
2023-03-05T22:58:19.741Z,6.4
2023-03-05T23:03:25.978Z,6.4
2023-03-05T23:08:32.152Z,6.4
2023-03-05T23:13:38.371Z,6.4
2023-03-05T23:18:44.568Z,6.4
2023-03-05T23:23:50.780Z,6.4
2023-03-05T23:28:56.982Z,6.4
2023-03-05T23:34:03.187Z,6.4
2023-03-05T23:39:08.439Z,6.4
2023-03-05T23:44:14.624Z,6.3
2023-03-05T23:49:19.871Z,6.3
2023-03-05T23:54:25.103Z,6.3
2023-03-05T23:59:31.315Z,6.2
